Kamloops Airport
CYKA : now visible

Airfield :











YOU CAN JOIN US ON...

 
LOGIN :

Register | Disclaimer

   EN    FR    IT 

 









Legend :    VFR   Marginal VFR   IFR   Intensive IFR   Very Intensive IFR
Visi :
Ceiling :
>= 8 km
>= 3000ft
5 to 8 km
1000 to 3000 ft
1500m to 5 km
500 to 1000 ft
800 to 1500m
200 to 500 ft
< 800m
< 200 ft
Symbols :   Thunderstorms  Fog  Heavy snow  Heavy precipitations  Wind > 20 kt






- Airport Elevation : 1133 ft
- IATA code : YKA


CYKA - Kamloops

CURRENT METAR :
  • 172100Z 31007KT 40SM SCT060 BKN095 03/M04 A3029 RMK SC3AC3 SLP277

EXPIRED METARs :
  • 172000Z 28009KT 40SM FEW050 SCT096 03/M04 A3030 RMK CU1AC3 SLP279
  • 171900Z 22006KT 210V270 40SM SCT062 SCT090 01/M05 A3030 RMK SC3AC1 SLP282

TAF TAF CYKA
Valid from the 17 at 19:00 until the 18 at 07:00 UTC


171838Z 1719/1807 27007KT P6SM FEW050 SCT090
BECMG 1801/1803 VRB03KT RMK NXT FCST BY 180100Z



MET'MAP, your aeronautical weather chart ! - Copyright ORBIFLY December 2007 - Disclaimer

ORBIFLY MET'MAP TEAM :

Programming & Development : Alexandra Zaïnal
Concept & original design : Baudouin d'Aumeries
Assistance for programming : Marc-Olivier Méhu
Technical & hardware support : Manuel Goepfert

Contact : metmap@orbifly.com




SOURCES & CREDITS :

   NOAA       Earth
Advisory